sensor_id;sensor_type;location;lat;lon;timestamp;P1;durP1;ratioP1;P2;durP2;ratioP2
23362;SDS011;11853;48.080;11.960;2023-01-28T00:01:21;24.40;;;16.98;;
23362;SDS011;11853;48.080;11.960;2023-01-28T00:03:50;24.45;;;17.33;;
23362;SDS011;11853;48.080;11.960;2023-01-28T00:06:17;25.92;;;18.90;;
23362;SDS011;11853;48.080;11.960;2023-01-28T00:08:43;25.27;;;18.48;;
23362;SDS011;11853;48.080;11.960;2023-01-28T00:11:10;25.05;;;18.40;;
23362;SDS011;11853;48.080;11.960;2023-01-28T00:13:37;23.42;;;17.05;;
23362;SDS011;11853;48.080;11.960;2023-01-28T00:16:05;23.83;;;17.55;;
23362;SDS011;11853;48.080;11.960;2023-01-28T00:18:33;26.73;;;18.25;;
23362;SDS011;11853;48.080;11.960;2023-01-28T00:21:20;25.75;;;18.02;;
23362;SDS011;11853;48.080;11.960;2023-01-28T00:23:51;24.15;;;17.27;;
23362;SDS011;11853;48.080;11.960;2023-01-28T00:26:19;25.25;;;18.58;;
23362;SDS011;11853;48.080;11.960;2023-01-28T00:28:46;23.45;;;16.98;;
23362;SDS011;11853;48.080;11.960;2023-01-28T00:33:43;20.38;;;15.85;;
23362;SDS011;11853;48.080;11.960;2023-01-28T00:36:10;25.08;;;18.08;;
23362;SDS011;11853;48.080;11.960;2023-01-28T00:38:36;21.55;;;16.15;;
23362;SDS011;11853;48.080;11.960;2023-01-28T00:41:06;24.67;;;17.60;;
23362;SDS011;11853;48.080;11.960;2023-01-28T00:43:41;23.65;;;17.23;;
23362;SDS011;11853;48.080;11.960;2023-01-28T00:46:09;25.40;;;17.95;;
23362;SDS011;11853;48.080;11.960;2023-01-28T00:48:37;24.05;;;17.00;;
23362;SDS011;11853;48.080;11.960;2023-01-28T00:51:04;24.90;;;17.77;;
23362;SDS011;11853;48.080;11.960;2023-01-28T00:53:31;24.38;;;17.40;;
23362;SDS011;11853;48.080;11.960;2023-01-28T00:55:59;24.33;;;17.42;;
23362;SDS011;11853;48.080;11.960;2023-01-28T00:58:25;25.02;;;18.13;;
23362;SDS011;11853;48.080;11.960;2023-01-28T01:00:51;24.73;;;17.35;;
23362;SDS011;11853;48.080;11.960;2023-01-28T01:03:17;23.77;;;17.58;;
23362;SDS011;11853;48.080;11.960;2023-01-28T01:05:44;23.92;;;16.90;;
23362;SDS011;11853;48.080;11.960;2023-01-28T01:08:11;23.80;;;16.20;;
23362;SDS011;11853;48.080;11.960;2023-01-28T01:10:38;24.48;;;17.08;;
23362;SDS011;11853;48.080;11.960;2023-01-28T01:13:06;25.30;;;17.73;;
23362;SDS011;11853;48.080;11.960;2023-01-28T01:15:32;24.05;;;17.90;;
23362;SDS011;11853;48.080;11.960;2023-01-28T01:17:59;21.30;;;16.13;;
23362;SDS011;11853;48.080;11.960;2023-01-28T01:20:26;23.30;;;16.70;;
23362;SDS011;11853;48.080;11.960;2023-01-28T01:22:55;21.65;;;16.15;;
23362;SDS011;11853;48.080;11.960;2023-01-28T01:25:21;27.58;;;18.67;;
23362;SDS011;11853;48.080;11.960;2023-01-28T01:27:47;24.48;;;17.17;;
23362;SDS011;11853;48.080;11.960;2023-01-28T01:30:14;22.52;;;16.92;;
23362;SDS011;11853;48.080;11.960;2023-01-28T01:32:40;23.10;;;17.10;;
23362;SDS011;11853;48.080;11.960;2023-01-28T01:35:06;23.35;;;17.38;;
23362;SDS011;11853;48.080;11.960;2023-01-28T01:37:34;21.35;;;16.15;;
23362;SDS011;11853;48.080;11.960;2023-01-28T01:40:00;25.02;;;18.05;;
23362;SDS011;11853;48.080;11.960;2023-01-28T01:42:28;21.83;;;16.02;;
23362;SDS011;11853;48.080;11.960;2023-01-28T01:45:02;21.42;;;16.00;;
23362;SDS011;11853;48.080;11.960;2023-01-28T01:49:55;19.92;;;15.07;;
23362;SDS011;11853;48.080;11.960;2023-01-28T01:52:27;22.92;;;16.48;;
23362;SDS011;11853;48.080;11.960;2023-01-28T01:54:58;22.27;;;15.77;;
23362;SDS011;11853;48.080;11.960;2023-01-28T01:57:28;19.38;;;15.13;;
23362;SDS011;11853;48.080;11.960;2023-01-28T01:59:56;19.67;;;14.45;;
23362;SDS011;11853;48.080;11.960;2023-01-28T02:02:40;19.92;;;14.40;;
23362;SDS011;11853;48.080;11.960;2023-01-28T02:05:08;20.52;;;15.07;;
23362;SDS011;11853;48.080;11.960;2023-01-28T02:07:36;19.00;;;14.00;;
23362;SDS011;11853;48.080;11.960;2023-01-28T02:10:02;20.05;;;15.13;;
23362;SDS011;11853;48.080;11.960;2023-01-28T02:12:33;22.40;;;15.68;;
23362;SDS011;11853;48.080;11.960;2023-01-28T02:15:11;18.73;;;14.73;;
23362;SDS011;11853;48.080;11.960;2023-01-28T02:17:41;19.13;;;14.60;;
23362;SDS011;11853;48.080;11.960;2023-01-28T02:20:09;21.55;;;14.90;;
23362;SDS011;11853;48.080;11.960;2023-01-28T02:25:39;21.23;;;15.68;;
23362;SDS011;11853;48.080;11.960;2023-01-28T02:28:31;19.10;;;14.90;;
23362;SDS011;11853;48.080;11.960;2023-01-28T02:31:35;20.83;;;15.03;;
23362;SDS011;11853;48.080;11.960;2023-01-28T02:34:22;21.60;;;16.15;;
23362;SDS011;11853;48.080;11.960;2023-01-28T02:39:47;18.85;;;14.38;;
23362;SDS011;11853;48.080;11.960;2023-01-28T02:42:24;20.30;;;15.27;;
23362;SDS011;11853;48.080;11.960;2023-01-28T02:44:54;21.25;;;14.98;;
23362;SDS011;11853;48.080;11.960;2023-01-28T02:47:20;19.92;;;15.05;;
23362;SDS011;11853;48.080;11.960;2023-01-28T02:50:11;21.38;;;15.65;;
23362;SDS011;11853;48.080;11.960;2023-01-28T02:53:02;21.17;;;15.60;;
23362;SDS011;11853;48.080;11.960;2023-01-28T02:58:32;22.23;;;16.52;;
23362;SDS011;11853;48.080;11.960;2023-01-28T03:04:08;21.55;;;15.73;;
23362;SDS011;11853;48.080;11.960;2023-01-28T03:06:42;22.85;;;16.30;;
23362;SDS011;11853;48.080;11.960;2023-01-28T03:09:11;21.63;;;16.63;;
23362;SDS011;11853;48.080;11.960;2023-01-28T03:11:49;23.30;;;16.83;;
23362;SDS011;11853;48.080;11.960;2023-01-28T03:14:44;24.80;;;16.65;;
23362;SDS011;11853;48.080;11.960;2023-01-28T03:20:28;23.55;;;15.98;;
23362;SDS011;11853;48.080;11.960;2023-01-28T03:23:22;23.48;;;16.73;;
23362;SDS011;11853;48.080;11.960;2023-01-28T03:26:12;27.67;;;18.55;;
23362;SDS011;11853;48.080;11.960;2023-01-28T03:29:00;25.67;;;17.85;;
23362;SDS011;11853;48.080;11.960;2023-01-28T03:34:35;23.50;;;17.45;;
23362;SDS011;11853;48.080;11.960;2023-01-28T03:37:20;24.60;;;17.02;;
23362;SDS011;11853;48.080;11.960;2023-01-28T03:39:46;21.48;;;16.27;;
23362;SDS011;11853;48.080;11.960;2023-01-28T03:42:13;22.10;;;16.40;;
23362;SDS011;11853;48.080;11.960;2023-01-28T03:44:42;22.13;;;16.70;;
23362;SDS011;11853;48.080;11.960;2023-01-28T03:47:33;21.07;;;15.57;;
23362;SDS011;11853;48.080;11.960;2023-01-28T03:49:59;24.80;;;17.17;;
23362;SDS011;11853;48.080;11.960;2023-01-28T03:52:28;22.92;;;16.15;;
23362;SDS011;11853;48.080;11.960;2023-01-28T03:54:56;21.25;;;15.93;;
23362;SDS011;11853;48.080;11.960;2023-01-28T03:57:23;21.60;;;16.00;;
23362;SDS011;11853;48.080;11.960;2023-01-28T03:59:51;23.23;;;17.58;;
23362;SDS011;11853;48.080;11.960;2023-01-28T04:02:17;23.13;;;17.20;;
23362;SDS011;11853;48.080;11.960;2023-01-28T04:04:45;22.85;;;16.98;;
23362;SDS011;11853;48.080;11.960;2023-01-28T04:07:12;26.35;;;17.73;;
23362;SDS011;11853;48.080;11.960;2023-01-28T04:09:39;22.73;;;16.20;;
23362;SDS011;11853;48.080;11.960;2023-01-28T04:12:08;23.65;;;16.63;;
23362;SDS011;11853;48.080;11.960;2023-01-28T04:14:34;27.17;;;19.40;;
23362;SDS011;11853;48.080;11.960;2023-01-28T04:17:00;24.65;;;17.75;;
23362;SDS011;11853;48.080;11.960;2023-01-28T04:19:26;21.00;;;14.95;;
23362;SDS011;11853;48.080;11.960;2023-01-28T04:21:52;21.13;;;16.35;;
23362;SDS011;11853;48.080;11.960;2023-01-28T04:24:18;21.23;;;16.00;;
23362;SDS011;11853;48.080;11.960;2023-01-28T04:26:45;23.15;;;17.25;;
23362;SDS011;11853;48.080;11.960;2023-01-28T04:29:11;22.30;;;16.08;;
23362;SDS011;11853;48.080;11.960;2023-01-28T04:31:37;22.65;;;17.10;;
23362;SDS011;11853;48.080;11.960;2023-01-28T04:34:04;23.90;;;16.42;;
23362;SDS011;11853;48.080;11.960;2023-01-28T04:36:29;24.58;;;17.52;;
23362;SDS011;11853;48.080;11.960;2023-01-28T04:38:56;22.52;;;16.48;;
23362;SDS011;11853;48.080;11.960;2023-01-28T04:41:22;21.70;;;16.27;;
23362;SDS011;11853;48.080;11.960;2023-01-28T04:43:49;25.67;;;17.77;;
23362;SDS011;11853;48.080;11.960;2023-01-28T04:46:15;26.33;;;18.20;;
23362;SDS011;11853;48.080;11.960;2023-01-28T04:48:41;27.10;;;18.42;;
23362;SDS011;11853;48.080;11.960;2023-01-28T04:51:07;25.05;;;17.42;;
23362;SDS011;11853;48.080;11.960;2023-01-28T04:53:33;25.17;;;17.50;;
23362;SDS011;11853;48.080;11.960;2023-01-28T04:55:59;25.70;;;17.42;;
23362;SDS011;11853;48.080;11.960;2023-01-28T04:58:25;26.08;;;18.33;;
23362;SDS011;11853;48.080;11.960;2023-01-28T05:00:54;25.60;;;17.77;;
23362;SDS011;11853;48.080;11.960;2023-01-28T05:03:22;22.58;;;17.38;;
23362;SDS011;11853;48.080;11.960;2023-01-28T05:05:48;23.13;;;16.83;;
23362;SDS011;11853;48.080;11.960;2023-01-28T05:08:15;26.13;;;17.58;;
23362;SDS011;11853;48.080;11.960;2023-01-28T05:10:41;23.52;;;16.95;;
23362;SDS011;11853;48.080;11.960;2023-01-28T05:13:07;23.50;;;17.23;;
23362;SDS011;11853;48.080;11.960;2023-01-28T05:15:32;25.02;;;16.63;;
23362;SDS011;11853;48.080;11.960;2023-01-28T05:17:58;24.80;;;17.38;;
23362;SDS011;11853;48.080;11.960;2023-01-28T05:20:24;23.80;;;17.73;;
23362;SDS011;11853;48.080;11.960;2023-01-28T05:22:51;25.85;;;17.23;;
23362;SDS011;11853;48.080;11.960;2023-01-28T05:25:17;24.05;;;17.02;;
23362;SDS011;11853;48.080;11.960;2023-01-28T05:27:43;24.70;;;17.20;;
23362;SDS011;11853;48.080;11.960;2023-01-28T05:30:17;24.80;;;17.45;;
23362;SDS011;11853;48.080;11.960;2023-01-28T05:32:43;24.63;;;18.08;;
23362;SDS011;11853;48.080;11.960;2023-01-28T05:35:11;23.13;;;16.55;;
23362;SDS011;11853;48.080;11.960;2023-01-28T05:37:36;27.50;;;17.63;;
23362;SDS011;11853;48.080;11.960;2023-01-28T05:40:02;24.88;;;17.23;;
23362;SDS011;11853;48.080;11.960;2023-01-28T05:42:29;22.95;;;16.40;;
23362;SDS011;11853;48.080;11.960;2023-01-28T05:44:54;23.95;;;17.38;;
23362;SDS011;11853;48.080;11.960;2023-01-28T05:47:20;26.77;;;18.40;;
23362;SDS011;11853;48.080;11.960;2023-01-28T05:49:46;26.48;;;18.25;;
23362;SDS011;11853;48.080;11.960;2023-01-28T05:52:11;25.33;;;17.67;;
23362;SDS011;11853;48.080;11.960;2023-01-28T05:54:37;26.33;;;18.50;;
23362;SDS011;11853;48.080;11.960;2023-01-28T05:57:03;23.20;;;17.08;;
23362;SDS011;11853;48.080;11.960;2023-01-28T05:59:29;28.00;;;18.05;;
23362;SDS011;11853;48.080;11.960;2023-01-28T06:01:55;29.17;;;18.48;;
23362;SDS011;11853;48.080;11.960;2023-01-28T06:04:21;26.05;;;18.02;;
23362;SDS011;11853;48.080;11.960;2023-01-28T06:06:46;25.33;;;17.90;;
23362;SDS011;11853;48.080;11.960;2023-01-28T06:09:12;24.20;;;17.27;;
23362;SDS011;11853;48.080;11.960;2023-01-28T06:11:38;25.48;;;18.20;;
23362;SDS011;11853;48.080;11.960;2023-01-28T06:14:04;25.83;;;19.00;;
23362;SDS011;11853;48.080;11.960;2023-01-28T06:16:30;24.48;;;18.10;;
23362;SDS011;11853;48.080;11.960;2023-01-28T06:18:56;26.90;;;18.95;;
23362;SDS011;11853;48.080;11.960;2023-01-28T06:21:21;30.95;;;19.45;;
23362;SDS011;11853;48.080;11.960;2023-01-28T06:23:47;30.83;;;20.45;;
23362;SDS011;11853;48.080;11.960;2023-01-28T06:26:13;30.15;;;19.77;;
23362;SDS011;11853;48.080;11.960;2023-01-28T06:28:38;38.53;;;22.77;;
23362;SDS011;11853;48.080;11.960;2023-01-28T06:31:04;41.08;;;24.80;;
23362;SDS011;11853;48.080;11.960;2023-01-28T06:33:31;45.67;;;24.42;;
23362;SDS011;11853;48.080;11.960;2023-01-28T06:35:58;64.40;;;30.25;;
23362;SDS011;11853;48.080;11.960;2023-01-28T06:38:28;59.40;;;29.27;;
23362;SDS011;11853;48.080;11.960;2023-01-28T06:40:54;51.88;;;26.63;;
23362;SDS011;11853;48.080;11.960;2023-01-28T06:43:20;36.13;;;21.58;;
23362;SDS011;11853;48.080;11.960;2023-01-28T06:45:58;31.10;;;19.45;;
23362;SDS011;11853;48.080;11.960;2023-01-28T06:48:25;28.33;;;19.38;;
23362;SDS011;11853;48.080;11.960;2023-01-28T06:50:52;36.22;;;22.63;;
23362;SDS011;11853;48.080;11.960;2023-01-28T06:53:18;30.35;;;19.38;;
23362;SDS011;11853;48.080;11.960;2023-01-28T06:55:45;23.33;;;17.13;;
23362;SDS011;11853;48.080;11.960;2023-01-28T06:58:10;30.58;;;19.88;;
23362;SDS011;11853;48.080;11.960;2023-01-28T07:00:36;33.58;;;21.17;;
23362;SDS011;11853;48.080;11.960;2023-01-28T07:03:03;33.30;;;20.88;;
23362;SDS011;11853;48.080;11.960;2023-01-28T07:05:29;26.95;;;18.27;;
23362;SDS011;11853;48.080;11.960;2023-01-28T07:07:55;27.33;;;18.98;;
23362;SDS011;11853;48.080;11.960;2023-01-28T07:10:21;34.10;;;22.98;;
23362;SDS011;11853;48.080;11.960;2023-01-28T07:12:46;38.42;;;25.05;;
23362;SDS011;11853;48.080;11.960;2023-01-28T07:15:12;42.45;;;25.67;;
23362;SDS011;11853;48.080;11.960;2023-01-28T07:17:42;34.40;;;22.75;;
23362;SDS011;11853;48.080;11.960;2023-01-28T07:20:09;34.17;;;22.15;;
23362;SDS011;11853;48.080;11.960;2023-01-28T07:22:37;29.92;;;20.63;;
23362;SDS011;11853;48.080;11.960;2023-01-28T07:25:05;28.50;;;19.30;;
23362;SDS011;11853;48.080;11.960;2023-01-28T07:27:32;25.15;;;18.67;;
23362;SDS011;11853;48.080;11.960;2023-01-28T07:29:57;26.08;;;18.10;;
23362;SDS011;11853;48.080;11.960;2023-01-28T07:32:23;25.60;;;17.95;;
23362;SDS011;11853;48.080;11.960;2023-01-28T07:34:51;24.95;;;17.70;;
23362;SDS011;11853;48.080;11.960;2023-01-28T07:37:19;25.88;;;17.88;;
23362;SDS011;11853;48.080;11.960;2023-01-28T07:39:45;26.80;;;18.55;;
23362;SDS011;11853;48.080;11.960;2023-01-28T07:42:11;27.02;;;18.95;;
23362;SDS011;11853;48.080;11.960;2023-01-28T07:44:37;27.58;;;19.38;;
23362;SDS011;11853;48.080;11.960;2023-01-28T07:47:03;24.60;;;18.30;;
23362;SDS011;11853;48.080;11.960;2023-01-28T07:49:30;25.00;;;17.48;;
23362;SDS011;11853;48.080;11.960;2023-01-28T07:51:57;28.05;;;19.23;;
23362;SDS011;11853;48.080;11.960;2023-01-28T07:54:23;25.60;;;17.77;;
23362;SDS011;11853;48.080;11.960;2023-01-28T07:56:48;25.05;;;17.27;;
23362;SDS011;11853;48.080;11.960;2023-01-28T07:59:14;24.50;;;17.15;;
23362;SDS011;11853;48.080;11.960;2023-01-28T08:01:40;24.48;;;17.42;;
23362;SDS011;11853;48.080;11.960;2023-01-28T08:04:06;24.50;;;18.20;;
23362;SDS011;11853;48.080;11.960;2023-01-28T08:06:31;24.13;;;16.70;;
23362;SDS011;11853;48.080;11.960;2023-01-28T08:09:05;24.92;;;17.13;;
23362;SDS011;11853;48.080;11.960;2023-01-28T08:11:32;23.75;;;16.42;;
23362;SDS011;11853;48.080;11.960;2023-01-28T08:13:59;23.23;;;16.95;;
23362;SDS011;11853;48.080;11.960;2023-01-28T08:16:26;23.52;;;17.13;;
23362;SDS011;11853;48.080;11.960;2023-01-28T08:18:53;23.83;;;17.40;;
23362;SDS011;11853;48.080;11.960;2023-01-28T08:21:19;23.95;;;17.17;;
23362;SDS011;11853;48.080;11.960;2023-01-28T08:23:45;25.23;;;17.60;;
23362;SDS011;11853;48.080;11.960;2023-01-28T08:26:10;22.58;;;17.15;;
23362;SDS011;11853;48.080;11.960;2023-01-28T08:28:36;23.88;;;17.00;;
23362;SDS011;11853;48.080;11.960;2023-01-28T08:31:02;23.27;;;16.80;;
23362;SDS011;11853;48.080;11.960;2023-01-28T08:33:28;24.05;;;17.00;;
23362;SDS011;11853;48.080;11.960;2023-01-28T08:35:53;24.40;;;18.35;;
23362;SDS011;11853;48.080;11.960;2023-01-28T08:38:20;22.88;;;16.92;;
23362;SDS011;11853;48.080;11.960;2023-01-28T08:40:46;23.10;;;16.92;;
23362;SDS011;11853;48.080;11.960;2023-01-28T08:43:14;25.75;;;17.55;;
23362;SDS011;11853;48.080;11.960;2023-01-28T08:45:40;22.83;;;17.45;;
23362;SDS011;11853;48.080;11.960;2023-01-28T08:48:07;23.75;;;17.88;;
23362;SDS011;11853;48.080;11.960;2023-01-28T08:50:37;23.13;;;16.33;;
23362;SDS011;11853;48.080;11.960;2023-01-28T08:53:05;23.60;;;17.00;;
23362;SDS011;11853;48.080;11.960;2023-01-28T08:55:35;23.52;;;16.75;;
23362;SDS011;11853;48.080;11.960;2023-01-28T08:58:02;22.70;;;16.73;;
23362;SDS011;11853;48.080;11.960;2023-01-28T09:00:29;20.58;;;16.40;;
23362;SDS011;11853;48.080;11.960;2023-01-28T09:02:59;22.02;;;16.63;;
23362;SDS011;11853;48.080;11.960;2023-01-28T09:05:24;22.02;;;16.20;;
23362;SDS011;11853;48.080;11.960;2023-01-28T09:07:50;22.25;;;16.55;;
23362;SDS011;11853;48.080;11.960;2023-01-28T09:10:16;21.23;;;15.15;;
23362;SDS011;11853;48.080;11.960;2023-01-28T09:12:44;22.45;;;16.90;;
23362;SDS011;11853;48.080;11.960;2023-01-28T09:15:11;24.77;;;16.90;;
23362;SDS011;11853;48.080;11.960;2023-01-28T09:17:37;21.90;;;16.15;;
23362;SDS011;11853;48.080;11.960;2023-01-28T09:20:04;22.42;;;16.50;;
23362;SDS011;11853;48.080;11.960;2023-01-28T09:22:31;21.13;;;15.70;;
23362;SDS011;11853;48.080;11.960;2023-01-28T09:24:57;23.52;;;17.48;;
23362;SDS011;11853;48.080;11.960;2023-01-28T09:27:23;21.45;;;16.45;;
23362;SDS011;11853;48.080;11.960;2023-01-28T09:29:50;21.40;;;15.52;;
23362;SDS011;11853;48.080;11.960;2023-01-28T09:32:16;23.63;;;16.95;;
23362;SDS011;11853;48.080;11.960;2023-01-28T09:34:41;24.48;;;16.50;;
23362;SDS011;11853;48.080;11.960;2023-01-28T09:37:09;25.67;;;18.23;;
23362;SDS011;11853;48.080;11.960;2023-01-28T09:39:35;21.80;;;16.60;;
23362;SDS011;11853;48.080;11.960;2023-01-28T09:45:12;18.83;;;14.63;;
23362;SDS011;11853;48.080;11.960;2023-01-28T09:48:00;22.85;;;16.02;;
23362;SDS011;11853;48.080;11.960;2023-01-28T09:50:33;22.42;;;15.80;;
23362;SDS011;11853;48.080;11.960;2023-01-28T09:55:49;19.58;;;14.68;;
23362;SDS011;11853;48.080;11.960;2023-01-28T09:58:20;21.73;;;15.48;;
23362;SDS011;11853;48.080;11.960;2023-01-28T10:00:59;20.60;;;15.23;;
23362;SDS011;11853;48.080;11.960;2023-01-28T10:19:28;19.85;;;13.50;;
23362;SDS011;11853;48.080;11.960;2023-01-28T10:21:59;21.10;;;14.57;;
23362;SDS011;11853;48.080;11.960;2023-01-28T10:24:33;18.63;;;13.35;;
23362;SDS011;11853;48.080;11.960;2023-01-28T10:27:01;22.10;;;15.50;;
23362;SDS011;11853;48.080;11.960;2023-01-28T10:29:33;17.23;;;13.10;;
23362;SDS011;11853;48.080;11.960;2023-01-28T10:34:44;16.98;;;13.27;;
23362;SDS011;11853;48.080;11.960;2023-01-28T10:37:13;15.07;;;11.90;;
23362;SDS011;11853;48.080;11.960;2023-01-28T10:39:40;17.08;;;11.05;;
23362;SDS011;11853;48.080;11.960;2023-01-28T10:44:50;18.63;;;13.88;;
23362;SDS011;11853;48.080;11.960;2023-01-28T10:47:21;18.08;;;13.40;;
23362;SDS011;11853;48.080;11.960;2023-01-28T10:49:55;19.80;;;13.85;;
23362;SDS011;11853;48.080;11.960;2023-01-28T10:52:26;17.77;;;12.38;;
23362;SDS011;11853;48.080;11.960;2023-01-28T10:55:02;19.27;;;13.38;;
23362;SDS011;11853;48.080;11.960;2023-01-28T10:57:29;19.23;;;14.90;;
23362;SDS011;11853;48.080;11.960;2023-01-28T11:00:21;20.30;;;15.02;;
23362;SDS011;11853;48.080;11.960;2023-01-28T11:02:48;21.80;;;14.32;;
23362;SDS011;11853;48.080;11.960;2023-01-28T11:05:15;18.25;;;13.55;;
23362;SDS011;11853;48.080;11.960;2023-01-28T11:07:44;15.35;;;12.63;;
23362;SDS011;11853;48.080;11.960;2023-01-28T11:12:57;12.45;;;9.98;;
23362;SDS011;11853;48.080;11.960;2023-01-28T11:15:24;12.68;;;9.93;;
23362;SDS011;11853;48.080;11.960;2023-01-28T11:17:53;12.68;;;10.05;;
23362;SDS011;11853;48.080;11.960;2023-01-28T11:20:25;10.63;;;9.30;;
23362;SDS011;11853;48.080;11.960;2023-01-28T11:22:53;12.88;;;9.65;;
23362;SDS011;11853;48.080;11.960;2023-01-28T11:25:28;14.45;;;10.77;;
23362;SDS011;11853;48.080;11.960;2023-01-28T11:27:55;13.75;;;10.73;;
23362;SDS011;11853;48.080;11.960;2023-01-28T11:30:27;12.90;;;10.02;;
23362;SDS011;11853;48.080;11.960;2023-01-28T11:35:38;12.37;;;10.03;;
23362;SDS011;11853;48.080;11.960;2023-01-28T11:38:13;13.15;;;10.77;;
23362;SDS011;11853;48.080;11.960;2023-01-28T11:40:50;14.07;;;11.15;;
23362;SDS011;11853;48.080;11.960;2023-01-28T11:43:19;13.25;;;11.13;;
23362;SDS011;11853;48.080;11.960;2023-01-28T11:51:51;13.52;;;11.13;;
23362;SDS011;11853;48.080;11.960;2023-01-28T12:02:50;14.32;;;11.48;;
23362;SDS011;11853;48.080;11.960;2023-01-28T12:24:57;12.75;;;10.60;;
23362;SDS011;11853;48.080;11.960;2023-01-28T12:41:02;16.02;;;12.25;;
23362;SDS011;11853;48.080;11.960;2023-01-28T12:43:44;18.08;;;13.57;;
23362;SDS011;11853;48.080;11.960;2023-01-28T12:57:36;16.15;;;12.82;;
23362;SDS011;11853;48.080;11.960;2023-01-28T13:05:42;17.65;;;14.18;;
23362;SDS011;11853;48.080;11.960;2023-01-28T13:08:15;17.33;;;14.25;;
23362;SDS011;11853;48.080;11.960;2023-01-28T13:10:46;17.55;;;13.65;;
23362;SDS011;11853;48.080;11.960;2023-01-28T13:13:17;16.42;;;13.32;;
23362;SDS011;11853;48.080;11.960;2023-01-28T13:15:45;18.83;;;14.02;;
23362;SDS011;11853;48.080;11.960;2023-01-28T13:18:27;17.00;;;13.05;;
23362;SDS011;11853;48.080;11.960;2023-01-28T13:20:59;17.40;;;13.40;;
23362;SDS011;11853;48.080;11.960;2023-01-28T13:25:56;20.95;;;16.58;;
23362;SDS011;11853;48.080;11.960;2023-01-28T13:28:51;16.45;;;14.10;;
23362;SDS011;11853;48.080;11.960;2023-01-28T13:31:21;16.85;;;13.63;;
23362;SDS011;11853;48.080;11.960;2023-01-28T13:36:38;23.92;;;17.33;;
23362;SDS011;11853;48.080;11.960;2023-01-28T13:41:49;22.30;;;17.67;;
23362;SDS011;11853;48.080;11.960;2023-01-28T13:46:56;16.05;;;13.75;;
23362;SDS011;11853;48.080;11.960;2023-01-28T13:49:39;15.60;;;12.77;;
23362;SDS011;11853;48.080;11.960;2023-01-28T13:58:11;17.65;;;14.45;;
23362;SDS011;11853;48.080;11.960;2023-01-28T14:09:10;22.15;;;16.80;;
23362;SDS011;11853;48.080;11.960;2023-01-28T14:17:41;18.20;;;14.70;;
23362;SDS011;11853;48.080;11.960;2023-01-28T14:23:03;18.67;;;14.18;;
23362;SDS011;11853;48.080;11.960;2023-01-28T14:31:44;50.70;;;34.83;;
23362;SDS011;11853;48.080;11.960;2023-01-28T14:36:52;17.50;;;14.82;;
23362;SDS011;11853;48.080;11.960;2023-01-28T14:39:25;17.13;;;12.85;;
23362;SDS011;11853;48.080;11.960;2023-01-28T14:41:53;37.83;;;21.38;;
23362;SDS011;11853;48.080;11.960;2023-01-28T14:47:12;61.65;;;38.83;;
23362;SDS011;11853;48.080;11.960;2023-01-28T14:52:36;14.07;;;11.77;;
23362;SDS011;11853;48.080;11.960;2023-01-28T14:55:24;16.67;;;12.20;;
23362;SDS011;11853;48.080;11.960;2023-01-28T14:57:56;15.98;;;12.07;;
23362;SDS011;11853;48.080;11.960;2023-01-28T15:00:25;14.98;;;11.05;;
23362;SDS011;11853;48.080;11.960;2023-01-28T15:02:52;13.82;;;11.70;;
23362;SDS011;11853;48.080;11.960;2023-01-28T15:05:20;17.38;;;14.52;;
23362;SDS011;11853;48.080;11.960;2023-01-28T15:07:48;12.27;;;10.55;;
23362;SDS011;11853;48.080;11.960;2023-01-28T15:10:24;16.48;;;12.13;;
23362;SDS011;11853;48.080;11.960;2023-01-28T15:12:56;14.32;;;11.68;;
23362;SDS011;11853;48.080;11.960;2023-01-28T15:15:34;15.55;;;11.77;;
23362;SDS011;11853;48.080;11.960;2023-01-28T15:18:09;21.23;;;15.45;;
23362;SDS011;11853;48.080;11.960;2023-01-28T15:20:46;17.40;;;14.07;;
23362;SDS011;11853;48.080;11.960;2023-01-28T15:23:14;19.45;;;14.48;;
23362;SDS011;11853;48.080;11.960;2023-01-28T15:25:42;17.88;;;12.80;;
23362;SDS011;11853;48.080;11.960;2023-01-28T15:28:11;14.48;;;10.93;;
23362;SDS011;11853;48.080;11.960;2023-01-28T15:30:45;15.18;;;12.00;;
23362;SDS011;11853;48.080;11.960;2023-01-28T15:33:14;15.90;;;13.68;;
23362;SDS011;11853;48.080;11.960;2023-01-28T15:35:47;19.02;;;15.27;;
23362;SDS011;11853;48.080;11.960;2023-01-28T15:38:15;42.90;;;34.38;;
23362;SDS011;11853;48.080;11.960;2023-01-28T15:40:45;27.23;;;22.23;;
23362;SDS011;11853;48.080;11.960;2023-01-28T15:43:18;18.73;;;15.30;;
23362;SDS011;11853;48.080;11.960;2023-01-28T15:45:56;22.20;;;18.50;;
23362;SDS011;11853;48.080;11.960;2023-01-28T15:48:24;21.80;;;16.95;;
23362;SDS011;11853;48.080;11.960;2023-01-28T15:50:59;22.63;;;18.77;;
23362;SDS011;11853;48.080;11.960;2023-01-28T15:53:46;30.63;;;24.70;;
23362;SDS011;11853;48.080;11.960;2023-01-28T15:56:26;114.95;;;76.75;;
23362;SDS011;11853;48.080;11.960;2023-01-28T15:58:54;136.77;;;84.53;;
23362;SDS011;11853;48.080;11.960;2023-01-28T16:01:21;123.35;;;81.78;;
23362;SDS011;11853;48.080;11.960;2023-01-28T16:04:04;110.85;;;71.47;;
23362;SDS011;11853;48.080;11.960;2023-01-28T16:06:35;44.22;;;29.13;;
23362;SDS011;11853;48.080;11.960;2023-01-28T16:09:05;30.27;;;19.80;;
23362;SDS011;11853;48.080;11.960;2023-01-28T16:11:47;23.75;;;15.95;;
23362;SDS011;11853;48.080;11.960;2023-01-28T16:14:26;22.77;;;14.32;;
23362;SDS011;11853;48.080;11.960;2023-01-28T16:16:54;67.20;;;42.83;;
23362;SDS011;11853;48.080;11.960;2023-01-28T16:22:04;22.58;;;16.75;;
23362;SDS011;11853;48.080;11.960;2023-01-28T16:24:32;22.50;;;15.68;;
23362;SDS011;11853;48.080;11.960;2023-01-28T16:27:01;36.42;;;26.30;;
23362;SDS011;11853;48.080;11.960;2023-01-28T16:29:29;52.70;;;39.45;;
23362;SDS011;11853;48.080;11.960;2023-01-28T16:31:55;26.23;;;19.40;;
23362;SDS011;11853;48.080;11.960;2023-01-28T16:34:23;30.63;;;23.63;;
23362;SDS011;11853;48.080;11.960;2023-01-28T16:36:51;24.98;;;19.25;;
23362;SDS011;11853;48.080;11.960;2023-01-28T16:39:17;21.63;;;16.38;;
23362;SDS011;11853;48.080;11.960;2023-01-28T16:41:44;20.75;;;14.95;;
23362;SDS011;11853;48.080;11.960;2023-01-28T16:44:12;18.20;;;13.60;;
23362;SDS011;11853;48.080;11.960;2023-01-28T16:46:38;19.38;;;13.32;;
23362;SDS011;11853;48.080;11.960;2023-01-28T16:49:04;17.20;;;12.95;;
23362;SDS011;11853;48.080;11.960;2023-01-28T16:51:29;19.50;;;13.65;;
23362;SDS011;11853;48.080;11.960;2023-01-28T16:53:55;19.33;;;13.73;;
23362;SDS011;11853;48.080;11.960;2023-01-28T16:56:23;30.00;;;17.08;;
23362;SDS011;11853;48.080;11.960;2023-01-28T16:58:51;25.35;;;15.82;;
23362;SDS011;11853;48.080;11.960;2023-01-28T17:01:17;22.48;;;14.85;;
23362;SDS011;11853;48.080;11.960;2023-01-28T17:03:43;20.85;;;14.32;;
23362;SDS011;11853;48.080;11.960;2023-01-28T17:06:14;19.60;;;13.75;;
23362;SDS011;11853;48.080;11.960;2023-01-28T17:08:42;16.65;;;12.10;;
23362;SDS011;11853;48.080;11.960;2023-01-28T17:11:09;17.52;;;12.88;;
23362;SDS011;11853;48.080;11.960;2023-01-28T17:13:35;17.05;;;12.43;;